Time;durP1;ratioP1;P1;durP2;ratioP2;P2;SDS_P1;SDS_P2;PMS_P1;PMS_P2;Temp;Humidity;BMP_temperature;BMP_pressure;BME280_temperature;BME280_humidity;BME280_pressure;Samples;Min_cycle;Max_cycle;Signal;HPM_P1;HPM_P2
2021/05/08 00:02:01;;;;;;;95.63;85.72;;;5.40;99.90;;;;;;5100165;28;20213;-81
2021/05/08 00:04:28;;;;;;;101.50;91.10;;;5.40;99.90;;;;;;5107224;28;20197;-81
2021/05/08 00:06:54;;;;;;;98.57;88.32;;;5.50;99.90;;;;;;5108023;28;20206;-82
2021/05/08 00:09:20;;;;;;;100.57;90.35;;;5.30;99.90;;;;;;5110101;28;20226;-83
2021/05/08 00:11:46;;;;;;;101.28;90.93;;;5.40;99.90;;;;;;5106301;28;20201;-83
2021/05/08 00:14:12;;;;;;;94.82;85.30;;;5.40;99.90;;;;;;5101074;28;20205;-83
2021/05/08 00:16:38;;;;;;;88.68;79.72;;;5.20;99.90;;;;;;5098874;28;20182;-82
2021/05/08 00:19:05;;;;;;;94.07;84.18;;;5.40;99.90;;;;;;5098931;28;20313;-82
2021/05/08 00:21:32;;;;;;;100.25;89.45;;;5.40;99.90;;;;;;5101151;28;20229;-82
2021/05/08 00:23:58;;;;;;;102.65;91.90;;;5.80;99.90;;;;;;5116963;28;20181;-83
2021/05/08 00:26:24;;;;;;;98.60;88.70;;;5.40;99.90;;;;;;5116343;28;20213;-83
2021/05/08 00:28:52;;;;;;;93.40;84.30;;;5.10;99.90;;;;;;5107034;28;20217;-83
2021/05/08 00:31:18;;;;;;;103.78;91.63;;;5.40;99.90;;;;;;5100206;28;20206;-82
2021/05/08 00:33:44;;;;;;;101.78;90.07;;;5.40;99.90;;;;;;5104153;28;20202;-81
2021/05/08 00:36:11;;;;;;;101.00;90.18;;;5.40;99.90;;;;;;5099837;28;20201;-83
2021/05/08 00:38:37;;;;;;;101.68;90.28;;;5.70;99.90;;;;;;5099665;28;20221;-83
2021/05/08 00:41:03;;;;;;;109.40;95.78;;;5.40;99.90;;;;;;5101995;28;20251;-83
2021/05/08 00:43:32;;;;;;;113.18;94.63;;;5.20;99.90;;;;;;5102512;28;20201;-82
2021/05/08 00:45:59;;;;;;;121.95;95.05;;;5.30;99.90;;;;;;5102305;28;20198;-83
2021/05/08 00:48:27;;;;;;;137.40;101.15;;;5.20;99.90;;;;;;5102082;28;20217;-85
2021/05/08 00:50:53;;;;;;;151.40;102.78;;;5.20;99.90;;;;;;5101619;28;20197;-82
2021/05/08 00:53:20;;;;;;;132.77;100.40;;;5.20;99.90;;;;;;5113027;28;20193;-82
2021/05/08 00:55:47;;;;;;;155.55;103.78;;;5.20;99.90;;;;;;5116387;28;20231;-82
2021/05/08 00:58:13;;;;;;;139.35;100.72;;;5.30;99.90;;;;;;5101307;28;20224;-82
2021/05/08 01:00:39;;;;;;;141.13;99.25;;;5.30;99.90;;;;;;5102246;28;20280;-82
2021/05/08 01:03:07;;;;;;;162.43;107.47;;;5.30;99.90;;;;;;5103444;28;20201;-81
2021/05/08 01:05:33;;;;;;;136.35;99.65;;;5.20;99.90;;;;;;5105132;28;20210;-83
2021/05/08 01:08:01;;;;;;;163.98;104.72;;;5.20;99.90;;;;;;5100310;28;20591;-82
2021/05/08 01:10:28;;;;;;;151.32;99.68;;;5.20;99.90;;;;;;5101562;28;20571;-82
2021/05/08 01:12:55;;;;;;;126.18;97.25;;;5.20;99.90;;;;;;5111106;28;20198;-82
2021/05/08 01:15:21;;;;;;;174.18;105.05;;;5.10;99.90;;;;;;5114832;28;20202;-82
2021/05/08 01:17:48;;;;;;;118.90;93.05;;;5.10;99.90;;;;;;5109375;28;20230;-82
2021/05/08 01:20:15;;;;;;;114.47;93.63;;;5.00;99.90;;;;;;5102257;28;20205;-83
2021/05/08 01:22:42;;;;;;;156.85;99.93;;;5.00;99.90;;;;;;5102190;28;20197;-83
2021/05/08 01:25:13;;;;;;;121.75;92.85;;;4.90;99.90;;;;;;5101031;28;20214;-83
2021/05/08 01:27:44;;;;;;;134.90;93.15;;;4.90;99.90;;;;;;5101266;28;20218;-83
2021/05/08 01:30:12;;;;;;;131.93;93.75;;;4.90;99.90;;;;;;5098425;28;20569;-83
2021/05/08 01:32:38;;;;;;;135.55;93.15;;;4.90;99.90;;;;;;5098463;28;20213;-83
2021/05/08 01:35:05;;;;;;;128.32;92.20;;;4.80;99.90;;;;;;5098324;28;20279;-83
2021/05/08 01:37:31;;;;;;;113.35;87.72;;;;;;;;;;5098715;28;20217;-83
2021/05/08 01:39:58;;;;;;;116.85;89.05;;;4.80;99.90;;;;;;5098258;28;20204;-83
2021/05/08 01:42:25;;;;;;;115.72;89.40;;;4.80;99.90;;;;;;5098505;28;20206;-83
2021/05/08 01:44:53;;;;;;;112.93;85.07;;;4.80;99.90;;;;;;5098198;28;20279;-83
2021/05/08 01:47:19;;;;;;;121.07;88.50;;;4.50;99.90;;;;;;5098354;28;20217;-83
2021/05/08 01:49:45;;;;;;;115.93;87.60;;;4.90;99.90;;;;;;5098290;28;20202;-83
2021/05/08 01:52:12;;;;;;;98.88;84.93;;;4.90;99.90;;;;;;5098327;28;20571;-83
2021/05/08 01:54:38;;;;;;;107.85;87.70;;;4.80;99.90;;;;;;5098126;28;20201;-82
2021/05/08 01:57:05;;;;;;;110.32;86.95;;;4.90;99.90;;;;;;5097929;28;20217;-81
2021/05/08 01:59:31;;;;;;;164.85;96.70;;;5.00;99.90;;;;;;5097287;28;20228;-82
2021/05/08 02:01:57;;;;;;;157.82;94.00;;;4.60;99.90;;;;;;5097491;28;20213;-83
2021/05/08 02:04:24;;;;;;;125.25;86.85;;;4.90;99.90;;;;;;5097817;28;20206;-81
2021/05/08 02:06:52;;;;;;;129.43;92.03;;;4.80;99.90;;;;;;5097494;28;20237;-80
2021/05/08 02:09:19;;;;;;;132.43;89.75;;;4.80;99.90;;;;;;5099501;28;20201;-82
2021/05/08 02:11:45;;;;;;;146.60;93.60;;;4.80;99.90;;;;;;5103955;28;20202;-81
2021/05/08 02:14:12;;;;;;;112.93;87.20;;;4.80;99.90;;;;;;5106290;28;20202;-81
2021/05/08 02:16:38;;;;;;;114.55;85.07;;;4.80;99.90;;;;;;5105398;28;20213;-81
2021/05/08 02:19:04;;;;;;;135.32;90.85;;;4.70;99.90;;;;;;5048856;22;20228;-87
2021/05/08 02:21:31;;;;;;;131.60;88.38;;;4.70;99.90;;;;;;5014368;28;20537;-87
2021/05/08 02:23:57;;;;;;;106.85;83.78;;;4.70;99.90;;;;;;5034825;28;20185;-89
2021/05/08 02:26:23;;;;;;;97.85;80.32;;;4.80;99.90;;;;;;5036744;28;20189;-89
2021/05/08 02:28:49;;;;;;;115.05;86.13;;;4.70;99.90;;;;;;5036364;28;20230;-90
2021/05/08 02:31:16;;;;;;;102.28;83.35;;;4.90;99.90;;;;;;5032623;28;20662;-89
2021/05/08 02:33:42;;;;;;;101.95;82.85;;;4.70;99.90;;;;;;5035268;28;20184;-89
2021/05/08 02:36:08;;;;;;;87.85;76.93;;;4.70;99.90;;;;;;5023012;28;20651;-87
2021/05/08 02:38:35;;;;;;;100.60;82.35;;;4.70;99.90;;;;;;5016195;28;20229;-86
2021/05/08 02:41:01;;;;;;;100.75;82.78;;;4.80;99.90;;;;;;5014336;28;20211;-87
2021/05/08 02:43:27;;;;;;;100.13;81.10;;;4.60;99.90;;;;;;5015186;28;20200;-87
2021/05/08 02:45:53;;;;;;;118.07;87.00;;;4.60;99.90;;;;;;5014644;28;20267;-87
2021/05/08 02:48:20;;;;;;;108.45;83.30;;;5.10;99.90;;;;;;5015059;28;20221;-88
2021/05/08 02:50:46;;;;;;;129.32;90.00;;;4.60;99.90;;;;;;5014346;28;20211;-87
2021/05/08 02:53:12;;;;;;;131.38;88.80;;;4.70;99.90;;;;;;5015368;28;20257;-88
2021/05/08 02:55:38;;;;;;;136.95;89.63;;;4.70;99.90;;;;;;5014229;28;20213;-86
2021/05/08 02:58:05;;;;;;;144.65;93.60;;;4.60;99.90;;;;;;5020039;28;20234;-87
2021/05/08 03:00:31;;;;;;;146.15;92.30;;;4.70;99.90;;;;;;5019397;28;20216;-90
2021/05/08 03:02:57;;;;;;;204.68;107.75;;;4.60;99.90;;;;;;5014953;28;20613;-89
2021/05/08 03:05:25;;;;;;;191.18;102.30;;;4.50;99.90;;;;;;5014979;28;20201;-89
2021/05/08 03:07:51;;;;;;;150.32;95.85;;;5.00;99.90;;;;;;5014911;28;20217;-89
2021/05/08 03:10:17;;;;;;;127.72;86.95;;;4.10;99.90;;;;;;5015591;28;20200;-90
2021/05/08 03:12:43;;;;;;;134.70;91.32;;;4.00;99.90;;;;;;5015273;28;20215;-89
2021/05/08 03:15:11;;;;;;;103.85;80.75;;;4.50;99.90;;;;;;5014035;28;20671;-89
2021/05/08 03:17:37;;;;;;;108.25;87.57;;;4.30;99.90;;;;;;5014215;28;20224;-88
2021/05/08 03:20:04;;;;;;;124.68;86.68;;;4.80;99.90;;;;;;5015366;28;20192;-89
2021/05/08 03:22:31;;;;;;;126.50;86.38;;;4.50;99.90;;;;;;5015226;28;20215;-89
2021/05/08 03:24:57;;;;;;;117.53;85.30;;;4.50;99.90;;;;;;5028217;28;20208;-89
2021/05/08 03:27:23;;;;;;;102.07;85.20;;;4.40;99.90;;;;;;5026264;28;20612;-88
2021/05/08 03:29:50;;;;;;;113.22;84.82;;;4.30;99.90;;;;;;5030215;28;20222;-88
2021/05/08 03:32:16;;;;;;;138.70;88.03;;;3.90;99.90;;;;;;5027692;28;20212;-89
2021/05/08 03:34:42;;;;;;;146.60;91.57;;;4.40;99.90;;;;;;5026525;28;20205;-89
2021/05/08 03:37:09;;;;;;;161.73;94.38;;;;;;;;;;5028975;28;20212;-88
2021/05/08 03:39:36;;;;;;;305.95;102.45;;;4.40;99.90;;;;;;5029106;28;20227;-89
2021/05/08 03:42:02;;;;;;;304.85;102.53;;;4.50;99.90;;;;;;5032505;28;20296;-89
2021/05/08 03:44:29;;;;;;;164.85;89.15;;;4.50;99.90;;;;;;5032636;28;20205;-89
2021/05/08 03:46:55;;;;;;;146.13;93.65;;;4.60;99.90;;;;;;5034161;28;20210;-88
2021/05/08 03:49:21;;;;;;;122.90;89.15;;;4.50;99.90;;;;;;5033066;28;20224;-88
2021/05/08 03:51:48;;;;;;;248.88;101.72;;;4.40;99.90;;;;;;5030306;28;20192;-88
2021/05/08 03:54:14;;;;;;;240.65;104.03;;;4.30;99.90;;;;;;5029496;28;20269;-88
2021/05/08 03:56:41;;;;;;;113.72;84.57;;;4.60;99.90;;;;;;5026977;28;20211;-88
2021/05/08 03:59:07;;;;;;;105.80;82.07;;;4.50;99.90;;;;;;5027035;28;20221;-89
2021/05/08 04:01:34;;;;;;;91.28;75.60;;;;;;;;;;5035531;28;20199;-89
2021/05/08 04:04:01;;;;;;;94.78;79.78;;;;;;;;;;5032246;28;20215;-89
2021/05/08 04:06:27;;;;;;;97.20;82.93;;;;;;;;;;5025784;28;20299;-89
2021/05/08 04:08:53;;;;;;;90.18;78.38;;;4.60;99.90;;;;;;5020131;28;20239;-89
2021/05/08 04:11:20;;;;;;;99.68;81.80;;;;;;;;;;5032860;28;20196;-90
2021/05/08 04:13:47;;;;;;;99.72;79.93;;;4.70;99.90;;;;;;5036596;28;20210;-90
2021/05/08 04:16:13;;;;;;;100.00;84.78;;;4.90;99.90;;;;;;5038903;28;20191;-90
2021/05/08 04:18:39;;;;;;;107.28;87.80;;;4.90;99.90;;;;;;5038714;28;20216;-90
2021/05/08 04:21:05;;;;;;;97.35;82.18;;;4.80;99.90;;;;;;5039143;28;20248;-89
2021/05/08 04:23:32;;;;;;;107.00;87.45;;;;;;;;;;5038957;28;20209;-90
2021/05/08 04:25:58;;;;;;;102.43;82.63;;;;;;;;;;5031581;28;20200;-89
2021/05/08 04:28:24;;;;;;;104.68;86.10;;;5.00;99.90;;;;;;5037174;28;20211;-90
2021/05/08 04:30:51;;;;;;;105.90;85.43;;;5.00;99.90;;;;;;5038961;28;20197;-91
2021/05/08 04:33:18;;;;;;;108.75;85.90;;;;;;;;;;5038730;28;20200;-90
2021/05/08 04:35:45;;;;;;;111.43;88.47;;;5.20;99.90;;;;;;5038851;28;20219;-89
2021/05/08 04:38:12;;;;;;;141.35;97.15;;;;;;;;;;5038542;28;20216;-89
2021/05/08 04:40:38;;;;;;;130.57;93.70;;;;;;;;;;5038596;28;20184;-89
2021/05/08 04:43:04;;;;;;;135.20;96.43;;;5.20;99.90;;;;;;5038545;28;20200;-89
2021/05/08 04:45:30;;;;;;;136.10;96.80;;;5.20;99.90;;;;;;5035807;28;20296;-89
2021/05/08 04:47:59;;;;;;;172.73;105.25;;;5.40;99.90;;;;;;5032351;28;20224;-89
2021/05/08 04:50:26;;;;;;;173.85;101.10;;;5.50;99.90;;;;;;5029163;28;20212;-89
2021/05/08 04:52:54;;;;;;;155.82;103.38;;;5.60;99.90;;;;;;5029091;28;20208;-89
2021/05/08 04:55:20;;;;;;;187.30;110.70;;;5.60;99.90;;;;;;5029483;28;20230;-89
2021/05/08 04:57:47;;;;;;;170.63;101.32;;;5.60;99.90;;;;;;5028719;28;20231;-89
2021/05/08 05:00:15;;;;;;;186.93;168.27;;;5.90;99.90;;;;;;5025382;28;20457;-89
2021/05/08 05:02:42;;;;;;;165.60;123.20;;;5.70;99.90;;;;;;5022352;28;20447;-89
2021/05/08 05:05:12;;;;;;;132.50;112.13;;;5.40;99.90;;;;;;5031712;28;20242;-88
2021/05/08 05:07:38;;;;;;;176.85;109.53;;;5.70;99.90;;;;;;5031512;28;20230;-89
2021/05/08 05:10:05;;;;;;;194.25;113.35;;;;;;;;;;5032161;28;20219;-89
2021/05/08 05:12:34;;;;;;;212.00;194.00;;;5.60;99.90;;;;;;5024121;28;20446;-89
2021/05/08 05:15:00;;;;;;;236.27;223.07;;;5.80;99.90;;;;;;5017042;28;20452;-90
2021/05/08 05:17:27;;;;;;;170.43;140.10;;;;;;;;;;5018502;28;20212;-89
2021/05/08 05:19:53;;;;;;;196.32;120.40;;;5.70;99.90;;;;;;5017554;28;20209;-89
2021/05/08 05:22:38;;;;;;;182.68;115.20;;;6.00;99.90;;;;;;5022081;28;20554;-89
2021/05/08 05:25:06;;;;;;;207.63;115.97;;;6.00;99.90;;;;;;5035439;28;20189;-89
2021/05/08 05:27:32;;;;;;;214.57;110.70;;;6.10;99.90;;;;;;5037878;28;20204;-89
2021/05/08 05:29:59;;;;;;;193.77;118.00;;;6.30;99.90;;;;;;5037950;27;20205;-89
2021/05/08 05:32:25;;;;;;;206.43;113.15;;;6.40;99.90;;;;;;5037980;28;20189;-88
2021/05/08 05:34:51;;;;;;;207.95;118.38;;;6.40;99.90;;;;;;5037954;28;20188;-88
2021/05/08 05:37:18;;;;;;;194.02;115.00;;;6.30;99.90;;;;;;5037759;28;20205;-89
2021/05/08 05:39:45;;;;;;;162.40;126.93;;;6.40;99.90;;;;;;5037549;28;20439;-88
2021/05/08 05:42:11;;;;;;;264.77;241.75;;;;;;;;;;5036646;28;20430;-89
2021/05/08 05:44:37;;;;;;;185.75;143.90;;;6.50;99.90;;;;;;5036264;28;20207;-88
2021/05/08 05:47:07;;;;;;;177.38;128.20;;;6.70;99.90;;;;;;5032483;28;20208;-89
2021/05/08 05:49:33;;;;;;;177.85;117.13;;;7.50;99.90;;;;;;5025495;28;20244;-88
2021/05/08 05:51:59;;;;;;;187.03;142.90;;;7.20;99.90;;;;;;5018953;28;20443;-89
2021/05/08 05:54:26;;;;;;;168.63;121.97;;;;;;;;;;5018593;28;20504;-88
2021/05/08 05:56:53;;;;;;;176.32;121.55;;;7.00;99.90;;;;;;5019748;28;20257;-88
2021/05/08 05:59:19;;;;;;;188.00;128.98;;;7.00;99.90;;;;;;5018599;28;20241;-88
2021/05/08 06:01:45;;;;;;;184.85;117.57;;;7.00;99.90;;;;;;5025057;28;20632;-88
2021/05/08 06:04:12;;;;;;;205.35;125.60;;;;;;;;;;5030118;28;20209;-89
2021/05/08 06:06:38;;;;;;;190.73;127.57;;;7.30;99.90;;;;;;5034458;28;20201;-89
2021/05/08 06:09:05;;;;;;;196.80;132.15;;;7.50;99.90;;;;;;5036923;28;20217;-90
2021/05/08 06:11:31;;;;;;;194.80;132.27;;;;;;;;;;5037165;28;20176;-90
2021/05/08 06:13:58;;;;;;;226.45;139.13;;;7.90;99.90;;;;;;5037265;28;20184;-89
2021/05/08 06:16:24;;;;;;;219.55;141.90;;;8.00;99.90;;;;;;5036764;27;20185;-89
2021/05/08 06:18:50;;;;;;;235.35;139.93;;;8.20;99.90;;;;;;5036451;28;20240;-89
2021/05/08 06:21:16;;;;;;;300.20;142.48;;;8.20;99.90;;;;;;5036841;28;20184;-87
2021/05/08 06:23:43;;;;;;;320.73;152.75;;;8.20;99.90;;;;;;5034428;28;20620;-86
2021/05/08 06:26:09;;;;;;;315.45;152.35;;;;;;;;;;5021331;28;20223;-86
2021/05/08 06:28:36;;;;;;;265.73;142.23;;;;;;;;;;5020188;28;20220;-87
2021/05/08 06:31:04;;;;;;;290.92;145.77;;;8.20;99.90;;;;;;5017500;28;20220;-86
2021/05/08 06:33:31;;;;;;;329.70;153.80;;;8.60;99.90;;;;;;5016643;28;20273;-87
2021/05/08 06:35:57;;;;;;;294.23;148.88;;;;;;;;;;5016477;28;20598;-86
2021/05/08 06:38:24;;;;;;;335.55;162.40;;;;;;;;;;5016484;28;20622;-86
2021/05/08 06:40:50;;;;;;;320.73;152.13;;;8.80;99.90;;;;;;5016200;28;20215;-87
2021/05/08 06:43:17;;;;;;;308.45;158.65;;;9.00;99.90;;;;;;5016531;28;20212;-86
2021/05/08 06:45:44;;;;;;;305.42;156.63;;;8.80;99.90;;;;;;5020723;28;20204;-87
2021/05/08 06:48:11;;;;;;;282.27;166.73;;;8.50;99.90;;;;;;5035485;28;20228;-86
2021/05/08 06:50:37;;;;;;;239.85;160.30;;;8.70;99.90;;;;;;5021206;28;20212;-86
2021/05/08 06:53:04;;;;;;;225.70;159.30;;;8.60;99.90;;;;;;5017767;28;20204;-87
2021/05/08 06:55:30;;;;;;;242.23;161.90;;;9.00;99.90;;;;;;5016202;28;20722;-87
2021/05/08 06:57:57;;;;;;;218.38;158.35;;;;;;;;;;5015361;28;20269;-87
2021/05/08 07:00:24;;;;;;;234.65;167.25;;;8.80;99.90;;;;;;5015046;28;20208;-86
2021/05/08 07:02:50;;;;;;;229.27;155.55;;;8.80;99.90;;;;;;5015451;28;20212;-87
2021/05/08 07:05:17;;;;;;;220.23;164.20;;;9.00;99.90;;;;;;5018861;28;20261;-86
2021/05/08 07:07:43;;;;;;;207.80;166.52;;;9.00;99.90;;;;;;5021378;28;20590;-87
2021/05/08 07:10:11;;;;;;;214.50;169.07;;;9.30;99.90;;;;;;5016190;28;20225;-86
2021/05/08 07:12:38;;;;;;;241.40;176.40;;;9.30;99.90;;;;;;5015385;28;20204;-87
2021/05/08 07:15:06;;;;;;;208.52;164.05;;;9.10;99.90;;;;;;5014521;28;20213;-87
2021/05/08 07:17:33;;;;;;;230.32;166.43;;;;;;;;;;5015422;28;20232;-86
2021/05/08 07:19:59;;;;;;;211.77;168.32;;;9.30;99.90;;;;;;5015200;28;20583;-87
2021/05/08 07:22:26;;;;;;;189.43;165.83;;;9.30;99.90;;;;;;5018824;28;20685;-87
2021/05/08 07:24:53;;;;;;;200.60;167.23;;;;;;;;;;5014863;28;20438;-87
2021/05/08 07:27:21;;;;;;;258.98;185.95;;;9.40;99.90;;;;;;5015019;28;20204;-85
2021/05/08 07:29:47;;;;;;;224.82;168.25;;;9.30;99.90;;;;;;5015728;28;20524;-86
2021/05/08 07:32:14;;;;;;;278.67;178.27;;;;;;;;;;5015020;28;20200;-86
2021/05/08 07:34:41;;;;;;;216.73;166.63;;;;;;;;;;5015632;28;20208;-86
2021/05/08 07:37:09;;;;;;;219.80;165.47;;;9.40;99.90;;;;;;5016628;28;20205;-87
2021/05/08 07:39:41;;;;;;;240.07;162.10;;;9.40;99.90;;;;;;5016037;28;20491;-87
2021/05/08 07:42:27;;;;;;;;;;;;;;;;;;;;;
2021/05/08 07:53:40;;;;;;;304.25;170.77;;;;;;;;;;5016790;28;20287;-87
2021/05/08 07:56:21;;;;;;;258.00;169.70;;;;;;;;;;5018558;28;20747;-87
2021/05/08 07:58:56;;;;;;;288.67;177.30;;;;;;;;;;5019329;28;20471;-87
2021/05/08 08:01:26;;;;;;;285.67;186.68;;;;;;;;;;5019641;28;20280;-87
2021/05/08 08:03:52;;;;;;;249.73;167.63;;;;;;;;;;5018949;28;20260;-87
2021/05/08 08:09:21;;;;;;;253.82;184.70;;;;;;;;;;5020137;28;20228;-85
2021/05/08 08:11:52;;;;;;;247.15;176.27;;;;;;;;;;5030709;28;20224;-86
2021/05/08 08:17:06;;;;;;;259.58;179.32;;;;;;;;;;5032341;28;20197;-87
2021/05/08 08:19:32;;;;;;;221.67;176.70;;;10.30;99.90;;;;;;4993396;23;20717;-80
2021/05/08 08:21:58;;;;;;;292.95;196.77;;;;;;;;;;4972169;29;20511;-80
2021/05/08 08:24:25;;;;;;;247.15;187.65;;;10.30;99.90;;;;;;4975398;28;20203;-81
2021/05/08 08:26:52;;;;;;;282.05;191.85;;;10.00;99.90;;;;;;4962451;29;20207;-80
2021/05/08 08:29:18;;;;;;;301.65;206.57;;;10.10;99.90;;;;;;4961446;28;20314;-80
2021/05/08 08:31:45;;;;;;;299.45;206.55;;;10.50;99.90;;;;;;4962399;28;20237;-80
2021/05/08 08:34:11;;;;;;;263.77;193.05;;;10.40;99.90;;;;;;4959791;28;20211;-81
2021/05/08 08:36:37;;;;;;;283.17;205.45;;;10.80;99.90;;;;;;4961276;28;20269;-81
2021/05/08 08:39:04;;;;;;;296.83;217.40;;;10.80;99.90;;;;;;4960523;28;20219;-80
2021/05/08 08:41:31;;;;;;;259.27;206.57;;;11.20;99.90;;;;;;4962024;28;20456;-80
2021/05/08 08:43:58;;;;;;;248.27;204.20;;;11.00;99.90;;;;;;4961390;28;20469;-81
2021/05/08 08:46:24;;;;;;;274.77;216.63;;;11.20;99.90;;;;;;4961063;28;20454;-80
2021/05/08 08:48:51;;;;;;;250.50;199.67;;;11.20;99.90;;;;;;4977009;28;20530;-79
2021/05/08 08:51:18;;;;;;;265.43;214.77;;;;;;;;;;4979201;28;20412;-78
2021/05/08 08:53:44;;;;;;;251.60;212.77;;;11.10;99.90;;;;;;4979109;28;20442;-79
2021/05/08 08:56:14;;;;;;;252.07;209.10;;;11.10;99.90;;;;;;4979065;28;20442;-79
2021/05/08 08:58:43;;;;;;;245.77;215.73;;;11.20;99.90;;;;;;4978832;28;20453;-80
2021/05/08 09:01:10;;;;;;;322.07;231.23;;;11.30;99.90;;;;;;4977904;28;20472;-80
2021/05/08 09:03:37;;;;;;;286.57;224.47;;;11.40;99.90;;;;;;4975853;28;20457;-80
2021/05/08 09:06:04;;;;;;;294.57;231.13;;;11.60;99.90;;;;;;4975093;28;20453;-82
2021/05/08 09:08:31;;;;;;;326.50;245.57;;;11.80;99.90;;;;;;4971838;28;20481;-80
2021/05/08 09:11:19;;;;;;;290.87;241.73;;;11.70;99.90;;;;;;4962140;28;20453;-79
2021/05/08 09:13:46;;;;;;;290.13;230.17;;;11.80;99.90;;;;;;4961728;28;20430;-80
2021/05/08 09:16:13;;;;;;;308.20;226.93;;;11.60;99.90;;;;;;4961732;28;20446;-79
2021/05/08 09:18:40;;;;;;;304.17;240.37;;;11.40;99.90;;;;;;4972979;28;20518;-79
2021/05/08 09:21:07;;;;;;;322.30;250.07;;;11.90;99.90;;;;;;4991275;28;20479;-80
2021/05/08 09:23:38;;;;;;;271.10;235.20;;;11.90;99.90;;;;;;4990743;28;20453;-81
2021/05/08 09:26:05;;;;;;;342.10;231.93;;;11.90;99.90;;;;;;4993550;28;20427;-79
2021/05/08 09:28:34;;;;;;;258.60;229.47;;;11.60;99.90;;;;;;4994088;28;20489;-79
2021/05/08 09:31:01;;;;;;;306.20;247.07;;;11.60;99.90;;;;;;4985013;28;20477;-80
2021/05/08 09:33:30;;;;;;;312.70;237.73;;;11.70;99.90;;;;;;4983146;28;20476;-80
2021/05/08 09:36:10;;;;;;;305.97;240.90;;;11.60;99.90;;;;;;4981551;28;20461;-81
2021/05/08 09:38:38;;;;;;;346.10;239.77;;;12.20;99.90;;;;;;4981138;28;20468;-80
2021/05/08 09:41:06;;;;;;;316.20;231.33;;;11.90;99.90;;;;;;4979622;28;20445;-82
2021/05/08 09:43:32;;;;;;;326.50;246.43;;;12.10;99.90;;;;;;4980171;28;20454;-81
2021/05/08 09:45:59;;;;;;;325.97;242.87;;;12.00;99.90;;;;;;4980004;28;20793;-80
2021/05/08 09:48:27;;;;;;;320.60;250.17;;;11.80;99.90;;;;;;4978901;28;20484;-81
2021/05/08 09:50:55;;;;;;;289.23;239.70;;;12.10;99.90;;;;;;4979450;28;21034;-79
2021/05/08 09:53:29;;;;;;;323.20;243.27;;;12.30;99.90;;;;;;4978780;28;20461;-80
2021/05/08 09:55:55;;;;;;;284.67;246.70;;;12.30;99.90;;;;;;4978686;28;20453;-80
2021/05/08 09:58:22;;;;;;;287.57;245.30;;;12.20;99.90;;;;;;4980181;28;20440;-81
2021/05/08 10:00:48;;;;;;;286.87;235.80;;;11.90;99.90;;;;;;4980492;28;20454;-80
2021/05/08 10:03:15;;;;;;;299.30;236.97;;;11.90;99.90;;;;;;4979542;28;20454;-80
2021/05/08 10:05:43;;;;;;;293.10;235.63;;;12.20;99.90;;;;;;4978853;28;20419;-81
2021/05/08 10:08:10;;;;;;;317.42;283.05;;;12.50;99.90;;;;;;4981474;28;20540;-80
2021/05/08 10:10:37;;;;;;;310.93;273.50;;;12.40;99.90;;;;;;4979223;28;20205;-80
2021/05/08 10:13:08;;;;;;;312.33;277.27;;;12.50;99.90;;;;;;4979173;28;20449;-81
2021/05/08 10:15:36;;;;;;;326.67;268.00;;;12.40;99.90;;;;;;4978524;28;20453;-82
2021/05/08 10:18:05;;;;;;;308.10;276.63;;;12.50;99.90;;;;;;4978308;28;21018;-81
2021/05/08 10:20:33;;;;;;;300.93;268.77;;;12.30;99.90;;;;;;4987870;28;20453;-80
2021/05/08 10:23:00;;;;;;;330.93;263.47;;;12.30;99.90;;;;;;4987341;28;21033;-81
2021/05/08 10:25:27;;;;;;;341.70;254.83;;;12.40;99.90;;;;;;4984104;28;20435;-82
2021/05/08 10:27:54;;;;;;;369.87;265.30;;;12.70;99.90;;;;;;4984011;28;20473;-80
2021/05/08 10:30:23;;;;;;;374.67;284.73;;;12.70;99.90;;;;;;4979243;28;20489;-81
2021/05/08 10:32:50;;;;;;;362.87;289.83;;;12.80;99.90;;;;;;4981385;28;20464;-80
2021/05/08 10:35:23;;;;;;;587.53;548.30;;;12.80;99.90;;;;;;4982082;28;20450;-80
2021/05/08 10:38:11;;;;;;;460.77;418.58;;;12.90;99.90;;;;;;4984337;28;20465;-80
2021/05/08 10:40:59;;;;;;;361.37;322.17;;;13.20;99.90;;;;;;4990197;28;20206;-80
2021/05/08 10:43:42;;;;;;;348.20;308.20;;;12.60;99.60;;;;;;4983990;28;20437;-81
2021/05/08 10:46:09;;;;;;;357.70;288.27;;;;;;;;;;4987992;28;20931;-81
2021/05/08 10:48:35;;;;;;;344.87;302.10;;;12.60;99.90;;;;;;4990475;28;20471;-81
2021/05/08 10:51:02;;;;;;;379.13;285.63;;;12.70;99.90;;;;;;4990845;28;20467;-80
2021/05/08 10:53:40;;;;;;;404.50;300.47;;;12.90;99.20;;;;;;4989847;28;20460;-80
2021/05/08 10:56:28;;;;;;;341.87;304.77;;;13.30;99.90;;;;;;4994310;28;20452;-79
2021/05/08 10:59:04;;;;;;;368.33;299.33;;;13.60;99.90;;;;;;4993408;28;20473;-80
2021/05/08 11:01:41;;;;;;;399.50;305.23;;;13.60;99.90;;;;;;4992469;28;20445;-81
2021/05/08 11:04:07;;;;;;;414.03;305.67;;;13.70;97.40;;;;;;4985371;28;20445;-81
2021/05/08 11:06:33;;;;;;;410.00;299.63;;;13.80;96.70;;;;;;4988673;28;20851;-81
2021/05/08 11:09:00;;;;;;;427.93;309.00;;;13.60;99.90;;;;;;4985435;28;21007;-81
2021/05/08 11:11:45;;;;;;;441.13;314.77;;;14.10;93.60;;;;;;4983894;28;20857;-81
2021/05/08 11:14:11;;;;;;;655.17;601.47;;;14.00;99.90;;;;;;4981708;28;20434;-80
2021/05/08 11:16:54;;;;;;;449.80;382.90;;;14.00;99.90;;;;;;4979033;28;20263;-81
2021/05/08 11:19:22;;;;;;;448.63;349.10;;;13.70;99.90;;;;;;4978259;28;20488;-80
2021/05/08 11:21:48;;;;;;;445.97;331.37;;;13.80;93.80;;;;;;4978421;28;20460;-80
2021/05/08 11:24:32;;;;;;;442.63;325.00;;;13.80;93.60;;;;;;4980023;28;20449;-80
2021/05/08 11:27:00;;;;;;;444.10;318.93;;;13.60;99.90;;;;;;4980436;28;20429;-81
2021/05/08 11:29:28;;;;;;;440.43;320.43;;;13.50;99.90;;;;;;4979483;28;20489;-81
2021/05/08 11:31:56;;;;;;;434.93;310.03;;;13.40;92.90;;;;;;4981013;28;20516;-81
2021/05/08 11:34:25;;;;;;;436.73;312.90;;;13.00;93.30;;;;;;4981396;28;20453;-81
2021/05/08 11:36:56;;;;;;;439.03;301.23;;;13.10;94.20;;;;;;4984151;28;20453;-80
2021/05/08 11:39:23;;;;;;;439.13;303.87;;;12.90;99.90;;;;;;4984853;28;20469;-80
2021/05/08 11:41:52;;;;;;;435.83;293.27;;;12.80;94.10;;;;;;4985664;28;20874;-80
2021/05/08 11:44:21;;;;;;;435.90;299.00;;;12.70;99.90;;;;;;4984531;28;20451;-82
2021/05/08 11:46:56;;;;;;;436.47;300.83;;;12.60;94.20;;;;;;4983938;28;20433;-83
2021/05/08 11:49:30;;;;;;;435.67;294.77;;;12.50;99.90;;;;;;4983703;28;20485;-81
2021/05/08 11:51:58;;;;;;;436.33;304.27;;;12.40;96.30;;;;;;4983530;28;20462;-83
2021/05/08 11:54:25;;;;;;;434.27;301.57;;;12.50;95.70;;;;;;4985668;28;20464;-80
2021/05/08 11:56:51;;;;;;;446.60;297.50;;;12.60;99.90;;;;;;4984841;28;20505;-81
2021/05/08 11:59:31;;;;;;;436.33;286.40;;;12.80;99.90;;;;;;4986723;28;20461;-81
2021/05/08 12:02:14;;;;;;;435.90;292.33;;;13.30;99.90;;;;;;4991078;28;20433;-81
2021/05/08 12:04:51;;;;;;;436.73;305.73;;;13.50;99.90;;;;;;4991975;28;20410;-80
2021/05/08 12:07:22;;;;;;;437.53;298.03;;;13.10;99.90;;;;;;4992367;28;20471;-80
2021/05/08 12:09:48;;;;;;;438.93;306.77;;;12.80;99.90;;;;;;4991240;28;20493;-80
2021/05/08 12:12:15;;;;;;;437.50;306.73;;;12.90;93.40;;;;;;4988273;28;20472;-81
2021/05/08 12:14:43;;;;;;;437.87;298.10;;;12.90;94.60;;;;;;4991033;28;20471;-80
2021/05/08 12:17:11;;;;;;;432.80;293.67;;;13.10;99.90;;;;;;4987858;28;20449;-79
2021/05/08 12:19:38;;;;;;;436.70;295.97;;;13.10;99.00;;;;;;4983323;28;20481;-81
2021/05/08 12:22:05;;;;;;;437.13;306.80;;;13.10;99.90;;;;;;4981183;28;20464;-82
2021/05/08 12:24:32;;;;;;;439.83;313.47;;;;;;;;;;4978222;28;20453;-82
2021/05/08 12:26:59;;;;;;;436.10;304.07;;;;;;;;;;4978248;28;20456;-81
2021/05/08 12:29:25;;;;;;;437.07;310.17;;;13.40;99.90;;;;;;4979157;28;20509;-80
2021/05/08 12:31:52;;;;;;;434.17;304.83;;;13.30;92.20;;;;;;4976129;28;20465;-81
2021/05/08 12:34:20;;;;;;;419.43;309.63;;;13.30;96.70;;;;;;4978067;28;20457;-82
2021/05/08 12:37:00;;;;;;;434.20;300.67;;;13.10;94.50;;;;;;4980598;28;20487;-82
2021/05/08 12:39:27;;;;;;;433.70;299.60;;;13.10;93.90;;;;;;4982024;28;20503;-83
2021/05/08 12:41:54;;;;;;;443.13;316.17;;;13.40;99.90;;;;;;4990924;28;20437;-81
2021/05/08 12:44:32;;;;;;;438.97;329.80;;;13.50;99.90;;;;;;4989183;28;20445;-81
2021/05/08 12:47:15;;;;;;;434.10;315.70;;;13.50;94.80;;;;;;4980837;28;20509;-82
2021/05/08 12:50:05;;;;;;;437.97;312.07;;;13.40;99.90;;;;;;4980295;28;20496;-82